Time,TemperatureF,DewpointF,PressureIn,WindDirection,WindDirectionDegrees,WindSpeedMPH,WindSpeedGustMPH,Humidity,HourlyPrecipIn,Conditions,Clouds,dailyrainin,SoftwareType,DateUTC
2013-03-08 00:01:00,34.9,34.1,30.16,North,357,0.0,0.0,97,0.00,,,0.33,Wunderground v.1.15,2013-03-08 08:01:00,
2013-03-08 00:11:00,34.7,33.9,30.16,North,357,0.0,0.0,97,0.00,,,0.00,Wunderground v.1.15,2013-03-08 08:11:00,
2013-03-08 00:21:00,34.4,33.6,30.15,North,357,0.0,0.0,97,0.00,,,0.00,Wunderground v.1.15,2013-03-08 08:21:00,
2013-03-08 00:31:00,34.3,33.5,30.15,North,357,0.0,0.0,97,0.00,,,0.00,Wunderground v.1.15,2013-03-08 08:31:00,
2013-03-08 00:36:00,34.1,33.3,30.15,North,357,0.0,0.0,97,0.00,,,0.00,Wunderground v.1.15,2013-03-08 08:36:00,
2013-03-08 00:46:00,34.0,33.2,30.16,North,357,0.0,0.0,97,0.00,,,0.00,Wunderground v.1.15,2013-03-08 08:46:00,
2013-03-08 00:56:00,33.8,33.0,30.16,North,357,0.0,0.0,97,0.00,,,0.00,Wunderground v.1.15,2013-03-08 08:56:00,
2013-03-08 01:01:00,33.7,32.9,30.16,North,357,0.0,0.0,97,0.00,,,0.00,Wunderground v.1.15,2013-03-08 09:01:00,
2013-03-08 01:11:00,33.5,32.7,30.16,North,357,0.0,0.0,97,0.00,,,0.00,Wunderground v.1.15,2013-03-08 09:11:00,
2013-03-08 01:21:00,33.4,32.6,30.16,North,357,0.0,0.0,97,0.00,,,0.00,Wunderground v.1.15,2013-03-08 09:21:00,
2013-03-08 01:31:00,33.1,32.3,30.16,North,357,0.0,0.0,97,0.00,,,0.00,Wunderground v.1.15,2013-03-08 09:31:00,
2013-03-08 01:41:00,33.1,32.3,30.16,North,357,0.0,0.0,97,0.00,,,0.00,Wunderground v.1.15,2013-03-08 09:41:00,
2013-03-08 01:51:00,32.9,32.1,30.16,North,357,0.0,0.0,97,0.00,,,0.00,Wunderground v.1.15,2013-03-08 09:51:00,
2013-03-08 02:01:00,32.9,32.1,30.16,North,357,0.0,0.0,97,0.00,,,0.00,Wunderground v.1.15,2013-03-08 10:01:00,
2013-03-08 02:11:00,32.8,32.0,30.16,North,357,0.0,0.0,97,0.00,,,0.00,Wunderground v.1.15,2013-03-08 10:11:00,
2013-03-08 02:21:00,32.7,31.9,30.16,North,357,0.0,0.0,97,0.00,,,0.00,Wunderground v.1.15,2013-03-08 10:21:00,
2013-03-08 02:31:00,32.7,31.9,30.16,North,357,0.0,0.0,97,0.00,,,0.00,Wunderground v.1.15,2013-03-08 10:31:00,
2013-03-08 02:41:00,32.5,31.7,30.16,North,357,0.0,0.0,97,0.00,,,0.00,Wunderground v.1.15,2013-03-08 10:41:00,
2013-03-08 02:51:00,32.4,31.6,30.16,North,357,0.0,0.0,97,0.00,,,0.00,Wunderground v.1.15,2013-03-08 10:51:00,
2013-03-08 02:56:00,32.4,31.6,30.16,North,357,0.0,0.0,97,0.00,,,0.00,Wunderground v.1.15,2013-03-08 10:56:00,
2013-03-08 03:11:00,32.1,31.3,30.15,North,357,0.0,0.0,97,0.00,,,0.00,Wunderground v.1.15,2013-03-08 11:11:00,
2013-03-08 03:21:00,32.1,31.3,30.16,North,357,0.0,0.0,97,0.00,,,0.00,Wunderground v.1.15,2013-03-08 11:21:00,
2013-03-08 03:31:00,32.1,31.3,30.15,North,357,0.0,0.0,97,0.00,,,0.00,Wunderground v.1.15,2013-03-08 11:31:00,
2013-03-08 03:41:00,32.1,31.3,30.15,North,357,0.0,0.0,97,0.00,,,0.00,Wunderground v.1.15,2013-03-08 11:41:00,
2013-03-08 03:51:00,31.9,31.1,30.15,North,357,0.0,0.0,97,0.00,,,0.00,Wunderground v.1.15,2013-03-08 11:51:00,
2013-03-08 03:56:00,31.9,31.1,30.15,North,357,0.0,0.0,97,0.00,,,0.00,Wunderground v.1.15,2013-03-08 11:56:00,
2013-03-08 04:11:00,31.8,31.0,30.15,North,357,0.0,0.0,97,0.00,,,0.00,Wunderground v.1.15,2013-03-08 12:11:00,
2013-03-08 04:21:00,31.6,30.8,30.15,North,357,0.0,0.0,97,0.00,,,0.00,Wunderground v.1.15,2013-03-08 12:21:00,
2013-03-08 04:31:00,31.5,30.7,30.15,North,357,0.0,0.0,97,0.00,,,0.00,Wunderground v.1.15,2013-03-08 12:31:00,
2013-03-08 04:36:00,31.5,30.7,30.15,North,357,0.0,0.0,97,0.00,,,0.00,Wunderground v.1.15,2013-03-08 12:36:00,
2013-03-08 04:46:00,31.3,30.5,30.16,North,357,0.0,0.0,97,0.00,,,0.00,Wunderground v.1.15,2013-03-08 12:46:00,
2013-03-08 04:56:00,31.3,30.5,30.16,North,357,0.0,0.0,97,0.00,,,0.00,Wunderground v.1.15,2013-03-08 12:56:00,
2013-03-08 05:01:00,31.2,30.4,30.16,North,357,0.0,0.0,97,0.00,,,0.00,Wunderground v.1.15,2013-03-08 13:01:00,
2013-03-08 05:11:00,31.2,30.4,30.16,North,357,0.0,0.0,97,0.00,,,0.00,Wunderground v.1.15,2013-03-08 13:11:00,
2013-03-08 05:21:00,31.2,30.4,30.17,North,357,0.0,0.0,97,0.00,,,0.00,Wunderground v.1.15,2013-03-08 13:21:00,
2013-03-08 05:26:00,31.3,30.5,30.17,North,357,0.0,0.0,97,0.00,,,0.00,Wunderground v.1.15,2013-03-08 13:26:00,
2013-03-08 05:36:00,31.5,30.7,30.17,North,357,0.0,0.0,97,0.00,,,0.00,Wunderground v.1.15,2013-03-08 13:36:00,
2013-03-08 05:46:00,31.6,30.8,30.17,North,357,0.0,0.0,97,0.00,,,0.00,Wunderground v.1.15,2013-03-08 13:46:00,
2013-03-08 05:51:00,31.6,30.8,30.17,North,357,0.0,0.0,97,0.00,,,0.00,Wunderground v.1.15,2013-03-08 13:51:00,
2013-03-08 06:01:00,31.8,31.0,30.17,North,357,0.0,0.0,97,0.00,,,0.00,Wunderground v.1.15,2013-03-08 14:01:00,
2013-03-08 06:11:00,31.8,31.0,30.17,North,357,0.0,0.0,97,0.00,,,0.00,Wunderground v.1.15,2013-03-08 14:11:00,
2013-03-08 06:16:00,31.9,31.1,30.17,North,357,0.0,0.0,97,0.00,,,0.00,Wunderground v.1.15,2013-03-08 14:16:00,
2013-03-08 06:26:00,31.9,31.1,30.17,North,357,0.0,0.0,97,0.00,,,0.00,Wunderground v.1.15,2013-03-08 14:26:00,
2013-03-08 06:31:00,32.1,31.3,30.17,North,357,0.0,0.0,97,0.00,,,0.00,Wunderground v.1.15,2013-03-08 14:31:00,
2013-03-08 06:41:00,32.1,31.3,30.17,North,357,0.0,0.0,97,0.00,,,0.00,Wunderground v.1.15,2013-03-08 14:41:00,
2013-03-08 06:51:00,32.2,31.4,30.17,North,357,0.0,0.0,97,0.00,,,0.00,Wunderground v.1.15,2013-03-08 14:51:00,
2013-03-08 07:01:00,32.2,31.4,30.18,North,357,0.0,0.0,97,0.00,,,0.00,Wunderground v.1.15,2013-03-08 15:01:00,
2013-03-08 07:11:00,32.2,31.4,30.18,North,357,0.0,0.0,97,0.00,,,0.00,Wunderground v.1.15,2013-03-08 15:11:00,
2013-03-08 07:16:00,32.2,31.4,30.18,North,357,0.0,0.0,97,0.00,,,0.00,Wunderground v.1.15,2013-03-08 15:16:00,
2013-03-08 07:26:00,32.2,31.4,30.18,North,357,0.0,0.0,97,0.00,,,0.00,Wunderground v.1.15,2013-03-08 15:26:00,
2013-03-08 07:36:00,32.4,31.6,30.18,North,357,0.0,0.0,97,0.00,,,0.00,Wunderground v.1.15,2013-03-08 15:36:00,
2013-03-08 07:41:00,32.5,31.7,30.18,North,357,0.0,0.0,97,0.00,,,0.00,Wunderground v.1.15,2013-03-08 15:41:00,
2013-03-08 07:51:00,32.5,31.7,30.18,North,356,0.0,0.0,97,0.00,,,0.00,Wunderground v.1.15,2013-03-08 15:51:00,
2013-03-08 08:01:00,32.7,31.9,30.19,North,356,0.0,0.0,97,0.00,,,0.00,Wunderground v.1.15,2013-03-08 16:01:00,
2013-03-08 08:11:00,32.8,32.0,30.19,North,356,0.0,0.0,97,0.00,,,0.01,Wunderground v.1.15,2013-03-08 16:11:00,
2013-03-08 08:21:00,32.9,32.1,30.19,North,356,0.0,0.0,97,0.00,,,0.01,Wunderground v.1.15,2013-03-08 16:21:00,
2013-03-08 08:31:00,33.1,32.3,30.19,NW,305,0.0,0.0,97,0.00,,,0.01,Wunderground v.1.15,2013-03-08 16:31:00,
2013-03-08 08:41:00,33.1,32.3,30.19,NW,305,0.0,0.0,97,0.00,,,0.01,Wunderground v.1.15,2013-03-08 16:41:00,
2013-03-08 08:51:00,33.5,33.0,30.19,NW,305,0.0,0.0,98,0.00,,,0.01,Wunderground v.1.15,2013-03-08 16:51:00,
2013-03-08 08:56:00,33.7,33.2,30.19,NW,305,0.0,0.0,98,0.00,,,0.01,Wunderground v.1.15,2013-03-08 16:56:00,
2013-03-08 09:11:00,34.1,33.6,30.20,NW,306,0.0,0.0,98,0.00,,,0.01,Wunderground v.1.15,2013-03-08 17:11:00,
2013-03-08 09:21:00,34.9,34.4,30.20,NW,309,0.0,0.0,98,0.00,,,0.01,Wunderground v.1.15,2013-03-08 17:21:00,
2013-03-08 09:31:00,35.8,35.3,30.20,North,0,0.0,0.0,98,0.00,,,0.01,Wunderground v.1.15,2013-03-08 17:31:00,
2013-03-08 09:41:00,36.5,36.0,30.20,North,0,0.0,0.0,98,0.00,,,0.01,Wunderground v.1.15,2013-03-08 17:41:00,
2013-03-08 09:51:00,37.0,36.5,30.20,North,0,0.0,0.0,98,0.00,,,0.01,Wunderground v.1.15,2013-03-08 17:51:00,
2013-03-08 10:01:00,37.8,37.3,30.20,North,0,0.0,0.0,98,0.00,,,0.01,Wunderground v.1.15,2013-03-08 18:01:00,
2013-03-08 10:11:00,38.0,37.5,30.20,West,261,0.0,0.0,98,0.00,,,0.01,Wunderground v.1.15,2013-03-08 18:11:00,
2013-03-08 10:21:00,38.9,38.4,30.20,NNW,328,0.0,0.0,98,0.00,,,0.01,Wunderground v.1.15,2013-03-08 18:21:00,
2013-03-08 10:31:00,39.1,38.6,30.19,West,271,0.0,0.0,98,0.00,,,0.01,Wunderground v.1.15,2013-03-08 18:31:00,
2013-03-08 10:36:00,39.5,39.0,30.19,West,274,0.0,1.0,98,0.00,,,0.01,Wunderground v.1.15,2013-03-08 18:36:00,
2013-03-08 10:41:00,39.9,39.4,30.19,West,272,0.0,0.0,98,0.00,,,0.01,Wunderground v.1.15,2013-03-08 18:41:00,
2013-03-08 10:51:00,41.1,40.6,30.19,WNW,287,0.0,0.0,98,0.00,,,0.01,Wunderground v.1.15,2013-03-08 18:51:00,
2013-03-08 10:56:00,41.9,41.4,30.19,WNW,302,0.0,1.0,98,0.00,,,0.01,Wunderground v.1.15,2013-03-08 18:56:00,
2013-03-08 11:11:00,43.3,42.5,30.19,SW,233,0.0,0.0,97,0.00,,,0.01,Wunderground v.1.15,2013-03-08 19:11:00,
2013-03-08 11:21:00,44.6,41.6,30.19,North,0,0.0,0.0,89,0.00,,,0.01,Wunderground v.1.15,2013-03-08 19:21:00,
2013-03-08 11:31:00,45.2,40.7,30.18,SW,224,0.0,0.0,84,0.00,,,0.01,Wunderground v.1.15,2013-03-08 19:31:00,
2013-03-08 11:41:00,45.7,40.8,30.18,WSW,248,0.0,0.0,83,0.00,,,0.01,Wunderground v.1.15,2013-03-08 19:41:00,
2013-03-08 11:51:00,46.4,41.2,30.18,WSW,257,0.0,2.0,82,0.00,,,0.01,Wunderground v.1.15,2013-03-08 19:51:00,
2013-03-08 12:01:00,46.5,41.3,30.18,WNW,282,0.0,0.0,82,0.00,,,0.01,Wunderground v.1.15,2013-03-08 20:01:00,
2013-03-08 12:11:00,46.5,41.0,30.18,WSW,258,0.0,0.0,81,0.00,,,0.01,Wunderground v.1.15,2013-03-08 20:11:00,
2013-03-08 12:21:00,47.1,40.9,30.18,SSE,150,0.0,0.0,79,0.00,,,0.01,Wunderground v.1.15,2013-03-08 20:21:00,
2013-03-08 12:31:00,48.0,41.8,30.17,WSW,257,0.0,2.0,79,0.00,,,0.01,Wunderground v.1.15,2013-03-08 20:31:00,
2013-03-08 12:36:00,48.2,41.7,30.17,ENE,58,0.0,2.0,78,0.00,,,0.01,Wunderground v.1.15,2013-03-08 20:36:00,
2013-03-08 12:46:00,48.6,41.0,30.17,SSW,195,0.0,1.0,75,0.00,,,0.01,Wunderground v.1.15,2013-03-08 20:46:00,
2013-03-08 12:51:00,48.9,42.3,30.17,NW,323,0.0,0.0,78,0.00,,,0.01,Wunderground v.1.15,2013-03-08 20:51:00,
2013-03-08 13:01:00,49.5,41.6,30.17,WSW,248,0.0,0.0,74,0.00,,,0.01,Wunderground v.1.15,2013-03-08 21:01:00,
2013-03-08 13:11:00,50.1,41.4,30.17,SW,215,1.0,1.0,72,0.00,,,0.01,Wunderground v.1.15,2013-03-08 21:11:00,
2013-03-08 13:21:00,50.2,41.2,30.16,SW,224,1.0,1.0,71,0.00,,,0.01,Wunderground v.1.15,2013-03-08 21:21:00,
2013-03-08 13:31:00,50.8,40.2,30.16,ESE,114,1.0,1.0,67,0.00,,,0.01,Wunderground v.1.15,2013-03-08 21:31:00,
2013-03-08 13:41:00,51.1,40.9,30.16,NNW,333,1.0,1.0,68,0.00,,,0.01,Wunderground v.1.15,2013-03-08 21:41:00,
2013-03-08 13:51:00,51.4,41.2,30.16,WSW,244,1.0,1.0,68,0.00,,,0.01,Wunderground v.1.15,2013-03-08 21:51:00,
2013-03-08 14:01:00,52.3,42.4,30.16,South,171,0.0,1.0,69,0.00,,,0.01,Wunderground v.1.15,2013-03-08 22:01:00,
2013-03-08 14:11:00,52.2,41.2,30.16,WSW,258,1.0,1.0,66,0.00,,,0.01,Wunderground v.1.15,2013-03-08 22:11:00,
2013-03-08 14:21:00,52.5,41.9,30.16,South,169,1.0,1.0,67,0.00,,,0.01,Wunderground v.1.15,2013-03-08 22:21:00,
2013-03-08 14:31:00,52.3,40.5,30.16,WSW,256,1.0,6.0,64,0.00,,,0.01,Wunderground v.1.15,2013-03-08 22:31:00,
2013-03-08 14:41:00,52.2,40.8,30.16,WSW,254,1.0,1.0,65,0.00,,,0.01,Wunderground v.1.15,2013-03-08 22:41:00,
2013-03-08 14:51:00,51.9,40.9,30.17,WSW,244,1.0,1.0,66,0.00,,,0.01,Wunderground v.1.15,2013-03-08 22:51:00,
2013-03-08 15:01:00,51.9,40.9,30.17,SSW,203,0.0,0.0,66,0.00,,,0.01,Wunderground v.1.15,2013-03-08 23:01:00,
2013-03-08 15:11:00,51.4,40.4,30.17,SE,145,1.0,1.0,66,0.00,,,0.01,Wunderground v.1.15,2013-03-08 23:11:00,
2013-03-08 15:21:00,51.3,39.9,30.17,WSW,257,1.0,1.0,65,0.00,,,0.01,Wunderground v.1.15,2013-03-08 23:21:00,
2013-03-08 15:31:00,50.8,39.5,30.17,WSW,253,2.0,6.0,65,0.00,,,0.01,Wunderground v.1.15,2013-03-08 23:31:00,
2013-03-08 15:41:00,50.7,40.1,30.17,WSW,247,1.0,1.0,67,0.00,,,0.01,Wunderground v.1.15,2013-03-08 23:41:00,
2013-03-08 15:51:00,50.7,39.7,30.18,WSW,253,0.0,0.0,66,0.00,,,0.01,Wunderground v.1.15,2013-03-08 23:51:00,
2013-03-08 15:56:00,50.7,39.7,30.18,WSW,239,0.0,0.0,66,0.00,,,0.01,Wunderground v.1.15,2013-03-08 23:56:00,
2013-03-08 16:11:00,50.1,40.3,30.18,SE,145,0.0,0.0,69,0.00,,,0.01,Wunderground v.1.15,2013-03-09 00:11:00,
2013-03-08 16:21:00,50.1,39.9,30.18,WSW,257,1.0,1.0,68,0.00,,,0.01,Wunderground v.1.15,2013-03-09 00:21:00,
2013-03-08 16:31:00,49.9,39.4,30.18,SW,223,1.0,1.0,67,0.00,,,0.01,Wunderground v.1.15,2013-03-09 00:31:00,
2013-03-08 16:41:00,49.6,39.1,30.18,West,265,1.0,1.0,67,0.00,,,0.01,Wunderground v.1.15,2013-03-09 00:41:00,
2013-03-08 16:51:00,49.5,39.0,30.18,SW,233,1.0,7.0,67,0.00,,,0.01,Wunderground v.1.15,2013-03-09 00:51:00,
2013-03-08 16:56:00,49.4,38.9,30.18,West,264,0.0,7.0,67,0.00,,,0.01,Wunderground v.1.15,2013-03-09 00:56:00,
2013-03-08 17:11:00,48.9,38.4,30.19,WSW,247,1.0,1.0,67,0.00,,,0.01,Wunderground v.1.15,2013-03-09 01:11:00,
2013-03-08 17:21:00,48.6,38.5,30.19,WSW,239,0.0,0.0,68,0.00,,,0.01,Wunderground v.1.15,2013-03-09 01:21:00,
2013-03-08 17:31:00,48.3,38.6,30.20,WSW,239,0.0,0.0,69,0.00,,,0.01,Wunderground v.1.15,2013-03-09 01:31:00,
2013-03-08 17:36:00,48.0,38.3,30.20,West,260,0.0,0.0,69,0.00,,,0.01,Wunderground v.1.15,2013-03-09 01:36:00,
2013-03-08 17:46:00,47.6,38.3,30.20,SW,236,0.0,0.0,70,0.00,,,0.01,Wunderground v.1.15,2013-03-09 01:46:00,
2013-03-08 17:56:00,47.1,38.2,30.20,West,264,0.0,0.0,71,0.00,,,0.01,Wunderground v.1.15,2013-03-09 01:56:00,
2013-03-08 18:11:00,46.2,38.7,30.21,West,264,0.0,0.0,75,0.00,,,0.01,Wunderground v.1.15,2013-03-09 02:11:00,
2013-03-08 18:21:00,45.8,39.0,30.21,WSW,243,0.0,0.0,77,0.00,,,0.01,Wunderground v.1.15,2013-03-09 02:21:00,
2013-03-08 18:26:00,45.5,39.0,30.21,WSW,243,0.0,0.0,78,0.00,,,0.01,Wunderground v.1.15,2013-03-09 02:26:00,
2013-03-08 18:36:00,45.1,39.0,30.22,WSW,243,0.0,0.0,79,0.00,,,0.01,Wunderground v.1.15,2013-03-09 02:36:00,
2013-03-08 18:46:00,44.5,38.4,30.23,WSW,243,0.0,0.0,79,0.00,,,0.01,Wunderground v.1.15,2013-03-09 02:46:00,
2013-03-08 18:56:00,43.9,38.8,30.23,WSW,258,0.0,0.0,82,0.00,,,0.01,Wunderground v.1.15,2013-03-09 02:56:00,
2013-03-08 19:11:00,43.6,38.8,30.23,SW,234,0.0,0.0,83,0.00,,,0.01,Wunderground v.1.15,2013-03-09 03:11:00,
2013-03-08 19:21:00,43.3,38.5,30.24,SW,234,0.0,0.0,83,0.00,,,0.01,Wunderground v.1.15,2013-03-09 03:21:00,
2013-03-08 19:31:00,42.6,38.1,30.24,SW,234,0.0,0.0,84,0.00,,,0.01,Wunderground v.1.15,2013-03-09 03:31:00,
2013-03-08 19:36:00,42.2,38.0,30.24,SW,234,0.0,0.0,85,0.00,,,0.01,Wunderground v.1.15,2013-03-09 03:36:00,
2013-03-08 19:46:00,41.6,38.0,30.25,SW,234,0.0,0.0,87,0.00,,,0.01,Wunderground v.1.15,2013-03-09 03:46:00,
2013-03-08 19:56:00,41.1,37.8,30.25,SW,234,0.0,0.0,88,0.00,,,0.01,Wunderground v.1.15,2013-03-09 03:56:00,
2013-03-08 20:01:00,40.6,37.6,30.25,SW,234,0.0,0.0,89,0.00,,,0.01,Wunderground v.1.15,2013-03-09 04:01:00,
2013-03-08 20:06:00,40.5,37.5,30.25,SW,234,0.0,0.0,89,0.00,,,0.01,Wunderground v.1.15,2013-03-09 04:06:00,
2013-03-08 20:16:00,39.9,37.5,30.26,SW,234,0.0,0.0,91,0.00,,,0.01,Wunderground v.1.15,2013-03-09 04:16:00,
2013-03-08 20:26:00,39.5,37.1,30.26,SW,234,0.0,0.0,91,0.00,,,0.01,Wunderground v.1.15,2013-03-09 04:26:00,
2013-03-08 20:36:00,39.2,37.1,30.27,SW,234,0.0,0.0,92,0.00,,,0.01,Wunderground v.1.15,2013-03-09 04:36:00,
2013-03-08 20:46:00,38.8,36.9,30.27,SW,234,0.0,0.0,93,0.00,,,0.01,Wunderground v.1.15,2013-03-09 04:46:00,
2013-03-08 20:56:00,38.5,36.7,30.27,SW,234,0.0,0.0,93,0.00,,,0.01,Wunderground v.1.15,2013-03-09 04:56:00,
2013-03-08 21:01:00,38.3,36.5,30.27,SW,234,0.0,0.0,93,0.00,,,0.01,Wunderground v.1.15,2013-03-09 05:01:00,
2013-03-08 21:11:00,38.0,36.2,30.27,SW,234,0.0,0.0,93,0.00,,,0.01,Wunderground v.1.15,2013-03-09 05:11:00,
2013-03-08 21:16:00,37.9,36.1,30.27,SW,234,0.0,0.0,93,0.00,,,0.01,Wunderground v.1.15,2013-03-09 05:16:00,
2013-03-08 21:21:00,37.8,36.0,30.27,SW,234,0.0,0.0,93,0.00,,,0.01,Wunderground v.1.15,2013-03-09 05:21:00,
2013-03-08 21:26:00,37.8,36.2,30.27,SW,234,0.0,0.0,94,0.00,,,0.01,Wunderground v.1.15,2013-03-09 05:26:00,
2013-03-08 21:31:00,37.6,36.0,30.28,SW,234,0.0,0.0,94,0.00,,,0.01,Wunderground v.1.15,2013-03-09 05:31:00,
2013-03-08 21:41:00,37.3,35.7,30.28,SW,234,0.0,0.0,94,0.00,,,0.01,Wunderground v.1.15,2013-03-09 05:41:00,
2013-03-08 21:51:00,37.0,35.4,30.28,SW,234,0.0,0.0,94,0.00,,,0.01,Wunderground v.1.15,2013-03-09 05:51:00,
2013-03-08 21:56:00,36.9,35.3,30.28,SW,234,0.0,0.0,94,0.00,,,0.01,Wunderground v.1.15,2013-03-09 05:56:00,
2013-03-08 22:11:00,36.6,35.0,30.28,SW,234,0.0,0.0,94,0.00,,,0.01,Wunderground v.1.15,2013-03-09 06:11:00,
2013-03-08 22:16:00,36.5,34.9,30.29,SW,234,0.0,0.0,94,0.00,,,0.01,Wunderground v.1.15,2013-03-09 06:16:00,
2013-03-08 22:26:00,36.2,34.9,30.29,SW,234,0.0,0.0,95,0.00,,,0.01,Wunderground v.1.15,2013-03-09 06:26:00,
2013-03-08 22:36:00,35.9,34.6,30.29,SW,234,0.0,0.0,95,0.00,,,0.01,Wunderground v.1.15,2013-03-09 06:36:00,
2013-03-08 22:46:00,35.8,34.5,30.29,SW,234,0.0,0.0,95,0.00,,,0.01,Wunderground v.1.15,2013-03-09 06:46:00,
2013-03-08 22:56:00,35.5,34.2,30.29,SW,234,0.0,0.0,95,0.00,,,0.01,Wunderground v.1.15,2013-03-09 06:56:00,
2013-03-08 23:11:00,35.2,33.9,30.30,SW,234,0.0,0.0,95,0.00,,,0.01,Wunderground v.1.15,2013-03-09 07:11:00,
2013-03-08 23:21:00,35.0,33.7,30.30,SW,234,0.0,0.0,95,0.00,,,0.01,Wunderground v.1.15,2013-03-09 07:21:00,
2013-03-08 23:31:00,34.7,33.4,30.30,SW,234,0.0,0.0,95,0.00,,,0.01,Wunderground v.1.15,2013-03-09 07:31:00,
2013-03-08 23:36:00,34.7,33.4,30.30,SW,234,0.0,0.0,95,0.00,,,0.01,Wunderground v.1.15,2013-03-09 07:36:00,
2013-03-08 23:46:00,34.6,33.6,30.31,SW,234,0.0,0.0,96,0.00,,,0.01,Wunderground v.1.15,2013-03-09 07:46:00,
2013-03-08 23:51:00,34.4,33.4,30.31,SW,234,0.0,0.0,96,0.00,,,0.01,Wunderground v.1.15,2013-03-09 07:51:00,